sensor_id;sensor_type;location;lat;lon;timestamp;temperature;humidity
40932;DHT22;36257;46.052;12.540;2022-08-06T00:02:28;27.50;72.20
40932;DHT22;36257;46.052;12.540;2022-08-06T00:04:56;27.40;72.60
40932;DHT22;36257;46.052;12.540;2022-08-06T00:07:23;27.40;72.80
40932;DHT22;36257;46.052;12.540;2022-08-06T00:09:49;27.20;72.90
40932;DHT22;36257;46.052;12.540;2022-08-06T00:12:15;27.10;73.30
40932;DHT22;36257;46.052;12.540;2022-08-06T00:14:40;26.90;73.60
40932;DHT22;36257;46.052;12.540;2022-08-06T00:17:06;26.70;74.10
40932;DHT22;36257;46.052;12.540;2022-08-06T00:19:32;26.60;74.60
40932;DHT22;36257;46.052;12.540;2022-08-06T00:21:57;26.60;74.50
40932;DHT22;36257;46.052;12.540;2022-08-06T00:24:23;26.60;74.70
40932;DHT22;36257;46.052;12.540;2022-08-06T00:26:49;26.50;74.60
40932;DHT22;36257;46.052;12.540;2022-08-06T00:29:15;26.40;74.30
40932;DHT22;36257;46.052;12.540;2022-08-06T00:31:41;26.40;74.30
40932;DHT22;36257;46.052;12.540;2022-08-06T00:34:07;26.30;74.80
40932;DHT22;36257;46.052;12.540;2022-08-06T00:36:34;26.30;74.80
40932;DHT22;36257;46.052;12.540;2022-08-06T00:39:04;26.30;75.30
40932;DHT22;36257;46.052;12.540;2022-08-06T00:41:31;26.20;75.40
40932;DHT22;36257;46.052;12.540;2022-08-06T00:43:59;26.10;75.50
40932;DHT22;36257;46.052;12.540;2022-08-06T00:46:25;26.10;75.50
40932;DHT22;36257;46.052;12.540;2022-08-06T00:48:51;26.10;75.70
40932;DHT22;36257;46.052;12.540;2022-08-06T00:51:17;26.00;75.90
40932;DHT22;36257;46.052;12.540;2022-08-06T00:53:43;25.80;76.50
40932;DHT22;36257;46.052;12.540;2022-08-06T00:56:09;25.80;76.70
40932;DHT22;36257;46.052;12.540;2022-08-06T00:58:35;25.70;76.70
40932;DHT22;36257;46.052;12.540;2022-08-06T01:01:01;25.60;77.10
40932;DHT22;36257;46.052;12.540;2022-08-06T01:03:27;25.60;77.40
40932;DHT22;36257;46.052;12.540;2022-08-06T01:05:52;25.70;77.20
40932;DHT22;36257;46.052;12.540;2022-08-06T01:08:18;25.70;77.00
40932;DHT22;36257;46.052;12.540;2022-08-06T01:10:44;25.70;76.90
40932;DHT22;36257;46.052;12.540;2022-08-06T01:13:10;25.80;76.40
40932;DHT22;36257;46.052;12.540;2022-08-06T01:15:37;25.80;76.40
40932;DHT22;36257;46.052;12.540;2022-08-06T01:18:12;25.80;76.60
40932;DHT22;36257;46.052;12.540;2022-08-06T01:26:33;25.70;76.70
40932;DHT22;36257;46.052;12.540;2022-08-06T01:29:20;25.60;76.90
40932;DHT22;36257;46.052;12.540;2022-08-06T01:31:48;25.60;76.70
40932;DHT22;36257;46.052;12.540;2022-08-06T01:37:29;25.60;76.50
40932;DHT22;36257;46.052;12.540;2022-08-06T01:40:00;25.60;76.50
40932;DHT22;36257;46.052;12.540;2022-08-06T01:42:29;25.60;76.60
40932;DHT22;36257;46.052;12.540;2022-08-06T01:44:59;25.60;76.40
40932;DHT22;36257;46.052;12.540;2022-08-06T01:47:30;25.50;76.30
40932;DHT22;36257;46.052;12.540;2022-08-06T01:50:01;25.50;76.40
40932;DHT22;36257;46.052;12.540;2022-08-06T01:52:29;25.50;76.30
40932;DHT22;36257;46.052;12.540;2022-08-06T01:54:57;25.50;76.60
40932;DHT22;36257;46.052;12.540;2022-08-06T01:57:24;25.40;76.90
40932;DHT22;36257;46.052;12.540;2022-08-06T01:59:53;25.30;77.00
40932;DHT22;36257;46.052;12.540;2022-08-06T02:02:23;25.40;77.00
40932;DHT22;36257;46.052;12.540;2022-08-06T02:04:55;25.40;76.70
40932;DHT22;36257;46.052;12.540;2022-08-06T02:07:32;25.40;76.40
40932;DHT22;36257;46.052;12.540;2022-08-06T02:10:00;25.50;76.50
40932;DHT22;36257;46.052;12.540;2022-08-06T02:12:28;25.50;76.30
40932;DHT22;36257;46.052;12.540;2022-08-06T02:15:13;25.50;76.40
40932;DHT22;36257;46.052;12.540;2022-08-06T02:17:46;25.50;76.20
40932;DHT22;36257;46.052;12.540;2022-08-06T02:20:14;25.50;76.30
40932;DHT22;36257;46.052;12.540;2022-08-06T02:22:41;25.50;76.50
40932;DHT22;36257;46.052;12.540;2022-08-06T02:25:10;25.40;76.30
40932;DHT22;36257;46.052;12.540;2022-08-06T02:27:40;25.40;76.30
40932;DHT22;36257;46.052;12.540;2022-08-06T02:30:07;25.30;76.70
40932;DHT22;36257;46.052;12.540;2022-08-06T02:32:33;25.20;77.00
40932;DHT22;36257;46.052;12.540;2022-08-06T02:34:58;25.10;77.30
40932;DHT22;36257;46.052;12.540;2022-08-06T02:37:48;25.10;77.50
40932;DHT22;36257;46.052;12.540;2022-08-06T02:40:24;25.00;77.20
40932;DHT22;36257;46.052;12.540;2022-08-06T02:43:17;24.90;77.00
40932;DHT22;36257;46.052;12.540;2022-08-06T02:50:51;25.10;76.60
40932;DHT22;36257;46.052;12.540;2022-08-06T02:53:23;25.10;76.40
40932;DHT22;36257;46.052;12.540;2022-08-06T02:56:02;25.20;76.30
40932;DHT22;36257;46.052;12.540;2022-08-06T02:58:37;25.20;76.40
40932;DHT22;36257;46.052;12.540;2022-08-06T03:01:08;25.20;76.30
40932;DHT22;36257;46.052;12.540;2022-08-06T03:03:35;25.20;76.40
40932;DHT22;36257;46.052;12.540;2022-08-06T03:06:04;25.10;76.70
40932;DHT22;36257;46.052;12.540;2022-08-06T03:08:31;25.00;76.50
40932;DHT22;36257;46.052;12.540;2022-08-06T03:10:58;25.10;76.60
40932;DHT22;36257;46.052;12.540;2022-08-06T03:13:25;25.10;76.60
40932;DHT22;36257;46.052;12.540;2022-08-06T03:15:53;25.00;76.90
40932;DHT22;36257;46.052;12.540;2022-08-06T03:18:20;25.00;76.90
40932;DHT22;36257;46.052;12.540;2022-08-06T03:20:47;24.90;77.00
40932;DHT22;36257;46.052;12.540;2022-08-06T03:23:14;24.80;77.20
40932;DHT22;36257;46.052;12.540;2022-08-06T03:25:42;24.80;77.40
40932;DHT22;36257;46.052;12.540;2022-08-06T03:28:11;24.70;77.60
40932;DHT22;36257;46.052;12.540;2022-08-06T03:30:38;24.70;77.20
40932;DHT22;36257;46.052;12.540;2022-08-06T03:33:09;24.70;77.40
40932;DHT22;36257;46.052;12.540;2022-08-06T03:35:36;24.70;77.40
40932;DHT22;36257;46.052;12.540;2022-08-06T03:38:02;24.70;77.60
40932;DHT22;36257;46.052;12.540;2022-08-06T03:40:30;24.60;77.80
40932;DHT22;36257;46.052;12.540;2022-08-06T03:42:58;24.60;77.90
40932;DHT22;36257;46.052;12.540;2022-08-06T03:45:25;24.60;77.80
40932;DHT22;36257;46.052;12.540;2022-08-06T03:47:54;24.60;77.20
40932;DHT22;36257;46.052;12.540;2022-08-06T03:50:25;24.70;77.00
40932;DHT22;36257;46.052;12.540;2022-08-06T03:52:57;24.80;76.30
40932;DHT22;36257;46.052;12.540;2022-08-06T03:55:28;24.90;75.90
40932;DHT22;36257;46.052;12.540;2022-08-06T03:58:02;24.90;76.00
40932;DHT22;36257;46.052;12.540;2022-08-06T04:00:32;25.00;75.40
40932;DHT22;36257;46.052;12.540;2022-08-06T04:03:00;25.10;75.50
40932;DHT22;36257;46.052;12.540;2022-08-06T04:05:29;25.10;74.90
40932;DHT22;36257;46.052;12.540;2022-08-06T04:08:01;25.10;74.60
40932;DHT22;36257;46.052;12.540;2022-08-06T04:10:48;25.20;74.60
40932;DHT22;36257;46.052;12.540;2022-08-06T04:13:16;25.20;74.80
40932;DHT22;36257;46.052;12.540;2022-08-06T04:15:43;25.20;75.40
40932;DHT22;36257;46.052;12.540;2022-08-06T04:18:14;25.10;75.30
40932;DHT22;36257;46.052;12.540;2022-08-06T04:20:43;25.10;75.10
40932;DHT22;36257;46.052;12.540;2022-08-06T04:23:10;25.00;75.60
40932;DHT22;36257;46.052;12.540;2022-08-06T04:25:42;24.90;75.90
40932;DHT22;36257;46.052;12.540;2022-08-06T04:28:09;24.90;76.10
40932;DHT22;36257;46.052;12.540;2022-08-06T04:30:35;24.80;76.40
40932;DHT22;36257;46.052;12.540;2022-08-06T04:33:02;24.80;76.80
40932;DHT22;36257;46.052;12.540;2022-08-06T04:35:30;24.80;76.70
40932;DHT22;36257;46.052;12.540;2022-08-06T04:37:58;24.90;76.10
40932;DHT22;36257;46.052;12.540;2022-08-06T04:40:23;25.00;74.80
40932;DHT22;36257;46.052;12.540;2022-08-06T04:42:50;25.10;74.60
40932;DHT22;36257;46.052;12.540;2022-08-06T04:45:17;25.20;74.50
40932;DHT22;36257;46.052;12.540;2022-08-06T04:47:43;25.30;73.70
40932;DHT22;36257;46.052;12.540;2022-08-06T04:50:10;25.40;73.10
40932;DHT22;36257;46.052;12.540;2022-08-06T04:52:37;25.50;73.30
40932;DHT22;36257;46.052;12.540;2022-08-06T04:55:03;25.70;73.70
40932;DHT22;36257;46.052;12.540;2022-08-06T04:57:29;25.80;73.10
40932;DHT22;36257;46.052;12.540;2022-08-06T04:59:54;25.90;73.30
40932;DHT22;36257;46.052;12.540;2022-08-06T05:02:20;26.00;74.10
40932;DHT22;36257;46.052;12.540;2022-08-06T05:04:47;26.00;73.50
40932;DHT22;36257;46.052;12.540;2022-08-06T05:07:23;26.10;73.60
40932;DHT22;36257;46.052;12.540;2022-08-06T05:09:50;26.10;72.80
40932;DHT22;36257;46.052;12.540;2022-08-06T05:12:32;26.20;72.90
40932;DHT22;36257;46.052;12.540;2022-08-06T05:15:21;26.20;72.80
40932;DHT22;36257;46.052;12.540;2022-08-06T05:18:17;26.30;72.70
40932;DHT22;36257;46.052;12.540;2022-08-06T05:20:47;26.40;73.40
40932;DHT22;36257;46.052;12.540;2022-08-06T05:23:19;26.50;73.50
40932;DHT22;36257;46.052;12.540;2022-08-06T05:25:46;26.60;73.60
40932;DHT22;36257;46.052;12.540;2022-08-06T05:28:12;26.60;74.10
40932;DHT22;36257;46.052;12.540;2022-08-06T05:30:43;26.70;74.80
40932;DHT22;36257;46.052;12.540;2022-08-06T05:33:09;26.80;74.30
40932;DHT22;36257;46.052;12.540;2022-08-06T05:35:34;26.90;73.80
40932;DHT22;36257;46.052;12.540;2022-08-06T05:38:00;27.00;74.10
40932;DHT22;36257;46.052;12.540;2022-08-06T05:40:26;27.10;73.90
40932;DHT22;36257;46.052;12.540;2022-08-06T05:42:59;27.20;73.80
40932;DHT22;36257;46.052;12.540;2022-08-06T05:45:26;27.50;73.60
40932;DHT22;36257;46.052;12.540;2022-08-06T05:47:53;27.60;74.60
40932;DHT22;36257;46.052;12.540;2022-08-06T05:50:22;27.80;72.30
40932;DHT22;36257;46.052;12.540;2022-08-06T05:52:57;28.00;70.40
40932;DHT22;36257;46.052;12.540;2022-08-06T05:55:31;28.20;69.60
40932;DHT22;36257;46.052;12.540;2022-08-06T05:58:03;28.30;69.50
40932;DHT22;36257;46.052;12.540;2022-08-06T06:00:32;28.50;69.40
40932;DHT22;36257;46.052;12.540;2022-08-06T06:03:00;28.60;68.00
40932;DHT22;36257;46.052;12.540;2022-08-06T06:05:27;28.80;66.90
40932;DHT22;36257;46.052;12.540;2022-08-06T06:07:54;29.00;66.60
40932;DHT22;36257;46.052;12.540;2022-08-06T06:10:22;29.30;65.80
40932;DHT22;36257;46.052;12.540;2022-08-06T06:12:48;29.50;66.50
40932;DHT22;36257;46.052;12.540;2022-08-06T06:15:16;29.60;65.90
40932;DHT22;36257;46.052;12.540;2022-08-06T06:18:01;29.70;64.60
40932;DHT22;36257;46.052;12.540;2022-08-06T06:25:55;30.10;64.90
40932;DHT22;36257;46.052;12.540;2022-08-06T06:34:51;30.60;65.20
40932;DHT22;36257;46.052;12.540;2022-08-06T06:40:12;30.90;63.60
40932;DHT22;36257;46.052;12.540;2022-08-06T06:43:04;30.90;64.40
40932;DHT22;36257;46.052;12.540;2022-08-06T06:45:36;31.10;65.30
40932;DHT22;36257;46.052;12.540;2022-08-06T06:50:51;31.50;64.00
40932;DHT22;36257;46.052;12.540;2022-08-06T06:53:18;31.60;64.20
40932;DHT22;36257;46.052;12.540;2022-08-06T06:55:46;31.70;64.60
40932;DHT22;36257;46.052;12.540;2022-08-06T06:58:36;31.80;63.10
40932;DHT22;36257;46.052;12.540;2022-08-06T07:01:09;31.90;63.20
40932;DHT22;36257;46.052;12.540;2022-08-06T07:03:38;32.10;62.30
40932;DHT22;36257;46.052;12.540;2022-08-06T07:06:06;32.20;63.70
40932;DHT22;36257;46.052;12.540;2022-08-06T07:08:37;32.40;62.60
40932;DHT22;36257;46.052;12.540;2022-08-06T07:11:07;32.60;62.20
40932;DHT22;36257;46.052;12.540;2022-08-06T07:13:35;32.80;62.90
40932;DHT22;36257;46.052;12.540;2022-08-06T07:16:02;33.00;62.70
40932;DHT22;36257;46.052;12.540;2022-08-06T07:18:29;33.10;60.40
40932;DHT22;36257;46.052;12.540;2022-08-06T07:20:55;33.00;60.50
40932;DHT22;36257;46.052;12.540;2022-08-06T07:23:22;33.10;59.90
40932;DHT22;36257;46.052;12.540;2022-08-06T07:25:49;33.10;59.60
40932;DHT22;36257;46.052;12.540;2022-08-06T07:28:16;33.20;60.50
40932;DHT22;36257;46.052;12.540;2022-08-06T07:30:42;33.30;59.90
40932;DHT22;36257;46.052;12.540;2022-08-06T07:33:10;33.40;59.60
40932;DHT22;36257;46.052;12.540;2022-08-06T07:35:41;33.50;58.70
40932;DHT22;36257;46.052;12.540;2022-08-06T07:38:08;33.60;60.00
40932;DHT22;36257;46.052;12.540;2022-08-06T07:40:50;33.80;59.50
40932;DHT22;36257;46.052;12.540;2022-08-06T07:45:48;33.80;57.10
40932;DHT22;36257;46.052;12.540;2022-08-06T07:48:16;33.90;56.70
40932;DHT22;36257;46.052;12.540;2022-08-06T07:50:47;34.00;57.30
40932;DHT22;36257;46.052;12.540;2022-08-06T07:53:15;34.00;57.90
40932;DHT22;36257;46.052;12.540;2022-08-06T07:55:41;34.10;57.40
40932;DHT22;36257;46.052;12.540;2022-08-06T07:58:10;34.30;56.80
40932;DHT22;36257;46.052;12.540;2022-08-06T08:00:37;34.40;56.20
40932;DHT22;36257;46.052;12.540;2022-08-06T08:03:03;34.30;55.60
40932;DHT22;36257;46.052;12.540;2022-08-06T08:05:48;34.30;55.10
40932;DHT22;36257;46.052;12.540;2022-08-06T08:08:34;34.40;55.90
40932;DHT22;36257;46.052;12.540;2022-08-06T08:11:00;34.50;54.50
40932;DHT22;36257;46.052;12.540;2022-08-06T08:13:26;34.80;55.40
40932;DHT22;36257;46.052;12.540;2022-08-06T08:15:55;34.90;56.70
40932;DHT22;36257;46.052;12.540;2022-08-06T08:18:21;35.00;57.70
40932;DHT22;36257;46.052;12.540;2022-08-06T08:20:47;35.10;56.80
40932;DHT22;36257;46.052;12.540;2022-08-06T08:23:14;35.10;55.90
40932;DHT22;36257;46.052;12.540;2022-08-06T08:25:41;35.10;56.20
40932;DHT22;36257;46.052;12.540;2022-08-06T08:28:08;35.20;56.10
40932;DHT22;36257;46.052;12.540;2022-08-06T08:30:37;35.10;56.10
40932;DHT22;36257;46.052;12.540;2022-08-06T08:33:04;35.10;56.20
40932;DHT22;36257;46.052;12.540;2022-08-06T08:35:30;34.90;55.90
40932;DHT22;36257;46.052;12.540;2022-08-06T08:37:55;34.90;57.10
40932;DHT22;36257;46.052;12.540;2022-08-06T08:40:22;35.00;56.90
40932;DHT22;36257;46.052;12.540;2022-08-06T08:42:50;35.10;57.40
40932;DHT22;36257;46.052;12.540;2022-08-06T08:45:19;35.20;56.00
40932;DHT22;36257;46.052;12.540;2022-08-06T08:47:57;35.10;55.90
40932;DHT22;36257;46.052;12.540;2022-08-06T08:50:27;35.20;55.00
40932;DHT22;36257;46.052;12.540;2022-08-06T08:53:00;35.40;53.10
40932;DHT22;36257;46.052;12.540;2022-08-06T08:55:28;35.30;54.20
40932;DHT22;36257;46.052;12.540;2022-08-06T08:57:54;35.20;54.30
40932;DHT22;36257;46.052;12.540;2022-08-06T09:00:21;34.90;54.20
40932;DHT22;36257;46.052;12.540;2022-08-06T09:02:48;34.80;56.00
40932;DHT22;36257;46.052;12.540;2022-08-06T09:05:15;34.70;56.40
40932;DHT22;36257;46.052;12.540;2022-08-06T09:07:41;34.60;56.50
40932;DHT22;36257;46.052;12.540;2022-08-06T09:10:09;34.50;56.40
40932;DHT22;36257;46.052;12.540;2022-08-06T09:12:35;34.40;57.40
40932;DHT22;36257;46.052;12.540;2022-08-06T09:15:02;34.60;56.70
40932;DHT22;36257;46.052;12.540;2022-08-06T09:17:31;35.00;56.20
40932;DHT22;36257;46.052;12.540;2022-08-06T09:19:57;35.30;56.10
40932;DHT22;36257;46.052;12.540;2022-08-06T09:22:23;35.50;53.90
40932;DHT22;36257;46.052;12.540;2022-08-06T09:24:49;35.70;55.10
40932;DHT22;36257;46.052;12.540;2022-08-06T09:27:16;36.00;54.60
40932;DHT22;36257;46.052;12.540;2022-08-06T09:30:04;36.40;54.20
40932;DHT22;36257;46.052;12.540;2022-08-06T09:32:45;36.60;52.40
40932;DHT22;36257;46.052;12.540;2022-08-06T09:35:20;36.60;51.40
40932;DHT22;36257;46.052;12.540;2022-08-06T09:37:48;36.50;53.10
40932;DHT22;36257;46.052;12.540;2022-08-06T09:40:16;36.30;52.00
40932;DHT22;36257;46.052;12.540;2022-08-06T09:42:45;36.20;52.50
40932;DHT22;36257;46.052;12.540;2022-08-06T09:45:13;36.50;52.30
40932;DHT22;36257;46.052;12.540;2022-08-06T09:47:40;36.90;54.20
40932;DHT22;36257;46.052;12.540;2022-08-06T09:50:06;37.40;53.50
40932;DHT22;36257;46.052;12.540;2022-08-06T09:52:32;37.70;51.80
40932;DHT22;36257;46.052;12.540;2022-08-06T09:54:58;37.90;48.50
40932;DHT22;36257;46.052;12.540;2022-08-06T09:57:27;38.10;51.50
40932;DHT22;36257;46.052;12.540;2022-08-06T09:59:53;38.40;50.50
40932;DHT22;36257;46.052;12.540;2022-08-06T10:02:19;38.60;51.50
40932;DHT22;36257;46.052;12.540;2022-08-06T10:04:47;38.60;47.20
40932;DHT22;36257;46.052;12.540;2022-08-06T10:07:14;38.60;48.50
40932;DHT22;36257;46.052;12.540;2022-08-06T10:09:54;38.80;48.40
40932;DHT22;36257;46.052;12.540;2022-08-06T10:12:23;38.70;48.40
40932;DHT22;36257;46.052;12.540;2022-08-06T10:14:50;38.90;49.70
40932;DHT22;36257;46.052;12.540;2022-08-06T10:17:20;39.00;46.60
40932;DHT22;36257;46.052;12.540;2022-08-06T10:20:07;39.10;48.40
40932;DHT22;36257;46.052;12.540;2022-08-06T10:22:34;39.20;45.00
40932;DHT22;36257;46.052;12.540;2022-08-06T10:25:02;38.50;47.00
40932;DHT22;36257;46.052;12.540;2022-08-06T10:27:33;38.40;48.20
40932;DHT22;36257;46.052;12.540;2022-08-06T10:30:05;38.10;48.80
40932;DHT22;36257;46.052;12.540;2022-08-06T10:32:47;38.30;49.00
40932;DHT22;36257;46.052;12.540;2022-08-06T10:35:21;38.40;52.00
40932;DHT22;36257;46.052;12.540;2022-08-06T10:37:51;38.70;49.00
40932;DHT22;36257;46.052;12.540;2022-08-06T10:40:19;38.80;48.50
40932;DHT22;36257;46.052;12.540;2022-08-06T10:42:46;38.90;49.00
40932;DHT22;36257;46.052;12.540;2022-08-06T10:45:12;38.90;47.70
40932;DHT22;36257;46.052;12.540;2022-08-06T10:47:44;38.60;48.50
40932;DHT22;36257;46.052;12.540;2022-08-06T10:50:12;38.40;49.60
40932;DHT22;36257;46.052;12.540;2022-08-06T10:52:39;38.20;49.40
40932;DHT22;36257;46.052;12.540;2022-08-06T10:55:06;37.80;49.90
40932;DHT22;36257;46.052;12.540;2022-08-06T10:57:32;37.50;50.20
40932;DHT22;36257;46.052;12.540;2022-08-06T11:00:00;37.50;50.40
40932;DHT22;36257;46.052;12.540;2022-08-06T11:02:52;37.70;49.60
40932;DHT22;36257;46.052;12.540;2022-08-06T11:05:32;37.70;51.10
40932;DHT22;36257;46.052;12.540;2022-08-06T11:08:05;37.90;49.10
40932;DHT22;36257;46.052;12.540;2022-08-06T11:13:06;38.40;49.90
40932;DHT22;36257;46.052;12.540;2022-08-06T11:15:35;38.30;50.30
40932;DHT22;36257;46.052;12.540;2022-08-06T11:18:11;38.00;49.70
40932;DHT22;36257;46.052;12.540;2022-08-06T11:20:40;37.60;49.20
40932;DHT22;36257;46.052;12.540;2022-08-06T11:28:07;36.50;51.60
40932;DHT22;36257;46.052;12.540;2022-08-06T11:33:06;36.40;51.50
40932;DHT22;36257;46.052;12.540;2022-08-06T11:38:06;36.20;50.00
40932;DHT22;36257;46.052;12.540;2022-08-06T11:51:57;37.40;50.20
40932;DHT22;36257;46.052;12.540;2022-08-06T11:59:45;37.10;50.20
40932;DHT22;36257;46.052;12.540;2022-08-06T12:02:44;36.90;50.50
40932;DHT22;36257;46.052;12.540;2022-08-06T12:05:03;36.70;49.50
40932;DHT22;36257;46.052;12.540;2022-08-06T12:07:31;36.60;49.60
40932;DHT22;36257;46.052;12.540;2022-08-06T12:10:07;36.50;49.90
40932;DHT22;36257;46.052;12.540;2022-08-06T12:20:35;36.20;50.30
40932;DHT22;36257;46.052;12.540;2022-08-06T12:23:04;36.20;50.90
40932;DHT22;36257;46.052;12.540;2022-08-06T12:25:36;36.40;51.00
40932;DHT22;36257;46.052;12.540;2022-08-06T12:28:03;36.60;50.70
40932;DHT22;36257;46.052;12.540;2022-08-06T12:30:52;36.80;50.40
40932;DHT22;36257;46.052;12.540;2022-08-06T12:33:20;36.40;50.10
40932;DHT22;36257;46.052;12.540;2022-08-06T12:35:54;36.20;51.20
40932;DHT22;36257;46.052;12.540;2022-08-06T12:38:23;36.20;51.00
40932;DHT22;36257;46.052;12.540;2022-08-06T12:40:58;36.30;50.80
40932;DHT22;36257;46.052;12.540;2022-08-06T12:43:26;36.30;51.10
40932;DHT22;36257;46.052;12.540;2022-08-06T12:46:00;36.40;50.70
40932;DHT22;36257;46.052;12.540;2022-08-06T12:48:26;36.10;50.10
40932;DHT22;36257;46.052;12.540;2022-08-06T12:51:12;36.10;49.80
40932;DHT22;36257;46.052;12.540;2022-08-06T12:53:56;36.00;49.70
40932;DHT22;36257;46.052;12.540;2022-08-06T12:56:23;36.10;50.80
40932;DHT22;36257;46.052;12.540;2022-08-06T12:58:51;36.10;50.30
40932;DHT22;36257;46.052;12.540;2022-08-06T13:01:21;35.90;49.80
40932;DHT22;36257;46.052;12.540;2022-08-06T13:03:50;35.70;50.70
40932;DHT22;36257;46.052;12.540;2022-08-06T13:06:18;35.90;50.50
40932;DHT22;36257;46.052;12.540;2022-08-06T13:08:49;35.80;49.50
40932;DHT22;36257;46.052;12.540;2022-08-06T13:11:15;35.70;50.10
40932;DHT22;36257;46.052;12.540;2022-08-06T13:13:47;35.60;50.30
40932;DHT22;36257;46.052;12.540;2022-08-06T13:16:14;35.50;50.00
40932;DHT22;36257;46.052;12.540;2022-08-06T13:18:42;35.60;50.50
40932;DHT22;36257;46.052;12.540;2022-08-06T13:21:19;35.70;51.10
40932;DHT22;36257;46.052;12.540;2022-08-06T13:23:45;35.80;49.50
40932;DHT22;36257;46.052;12.540;2022-08-06T13:26:21;35.70;49.40
40932;DHT22;36257;46.052;12.540;2022-08-06T13:29:06;35.90;49.10
40932;DHT22;36257;46.052;12.540;2022-08-06T13:31:36;35.80;48.90
40932;DHT22;36257;46.052;12.540;2022-08-06T13:34:06;35.70;49.40
40932;DHT22;36257;46.052;12.540;2022-08-06T13:36:33;35.50;49.80
40932;DHT22;36257;46.052;12.540;2022-08-06T13:39:17;35.70;50.00
40932;DHT22;36257;46.052;12.540;2022-08-06T13:41:43;35.80;49.20
40932;DHT22;36257;46.052;12.540;2022-08-06T13:44:29;35.90;49.80
40932;DHT22;36257;46.052;12.540;2022-08-06T13:46:58;35.90;48.50
40932;DHT22;36257;46.052;12.540;2022-08-06T13:49:24;35.80;47.60
40932;DHT22;36257;46.052;12.540;2022-08-06T13:51:51;35.60;47.50
40932;DHT22;36257;46.052;12.540;2022-08-06T13:54:17;35.30;48.20
40932;DHT22;36257;46.052;12.540;2022-08-06T13:56:43;35.30;48.50
40932;DHT22;36257;46.052;12.540;2022-08-06T13:59:09;35.30;48.70
40932;DHT22;36257;46.052;12.540;2022-08-06T14:01:35;35.30;46.70
40932;DHT22;36257;46.052;12.540;2022-08-06T14:04:00;35.30;47.80
40932;DHT22;36257;46.052;12.540;2022-08-06T14:06:26;35.50;46.40
40932;DHT22;36257;46.052;12.540;2022-08-06T14:08:52;35.50;46.60
40932;DHT22;36257;46.052;12.540;2022-08-06T14:11:17;35.40;46.80
40932;DHT22;36257;46.052;12.540;2022-08-06T14:13:43;35.10;47.70
40932;DHT22;36257;46.052;12.540;2022-08-06T14:16:09;34.80;47.50
40932;DHT22;36257;46.052;12.540;2022-08-06T14:18:35;34.60;46.50
40932;DHT22;36257;46.052;12.540;2022-08-06T14:21:00;34.30;47.50
40932;DHT22;36257;46.052;12.540;2022-08-06T14:23:26;33.90;50.00
40932;DHT22;36257;46.052;12.540;2022-08-06T14:25:52;33.70;51.00
40932;DHT22;36257;46.052;12.540;2022-08-06T14:28:18;33.50;50.20
40932;DHT22;36257;46.052;12.540;2022-08-06T14:30:45;33.10;50.30
40932;DHT22;36257;46.052;12.540;2022-08-06T14:33:11;32.80;50.90
40932;DHT22;36257;46.052;12.540;2022-08-06T14:35:37;32.60;50.80
40932;DHT22;36257;46.052;12.540;2022-08-06T14:38:05;32.40;49.50
40932;DHT22;36257;46.052;12.540;2022-08-06T14:40:32;32.20;50.10
40932;DHT22;36257;46.052;12.540;2022-08-06T14:43:16;32.00;49.40
40932;DHT22;36257;46.052;12.540;2022-08-06T14:46:00;31.90;48.70
40932;DHT22;36257;46.052;12.540;2022-08-06T14:48:26;31.90;48.50
40932;DHT22;36257;46.052;12.540;2022-08-06T14:50:52;31.70;49.10
40932;DHT22;36257;46.052;12.540;2022-08-06T14:53:18;31.50;50.70
40932;DHT22;36257;46.052;12.540;2022-08-06T14:55:44;31.30;50.80
40932;DHT22;36257;46.052;12.540;2022-08-06T14:58:10;31.10;50.90
40932;DHT22;36257;46.052;12.540;2022-08-06T15:00:36;30.90;51.50
40932;DHT22;36257;46.052;12.540;2022-08-06T15:03:03;30.70;51.70
40932;DHT22;36257;46.052;12.540;2022-08-06T15:05:28;30.60;51.20
40932;DHT22;36257;46.052;12.540;2022-08-06T15:07:54;30.50;51.20
40932;DHT22;36257;46.052;12.540;2022-08-06T15:10:20;30.50;51.40
40932;DHT22;36257;46.052;12.540;2022-08-06T15:12:45;30.50;49.30
40932;DHT22;36257;46.052;12.540;2022-08-06T15:15:12;30.50;49.50
40932;DHT22;36257;46.052;12.540;2022-08-06T15:17:38;30.50;49.30
40932;DHT22;36257;46.052;12.540;2022-08-06T15:20:04;30.50;49.80
40932;DHT22;36257;46.052;12.540;2022-08-06T15:22:30;30.30;50.40
40932;DHT22;36257;46.052;12.540;2022-08-06T15:24:56;30.10;50.90
40932;DHT22;36257;46.052;12.540;2022-08-06T15:27:21;30.00;50.70
40932;DHT22;36257;46.052;12.540;2022-08-06T15:29:47;29.90;51.60
40932;DHT22;36257;46.052;12.540;2022-08-06T15:32:13;29.90;51.00
40932;DHT22;36257;46.052;12.540;2022-08-06T15:34:39;29.90;51.30
40932;DHT22;36257;46.052;12.540;2022-08-06T15:37:04;29.80;51.20
40932;DHT22;36257;46.052;12.540;2022-08-06T15:39:33;29.80;50.90
40932;DHT22;36257;46.052;12.540;2022-08-06T15:41:59;29.80;51.60
40932;DHT22;36257;46.052;12.540;2022-08-06T15:44:25;29.70;52.10
40932;DHT22;36257;46.052;12.540;2022-08-06T15:46:51;29.50;55.90
40932;DHT22;36257;46.052;12.540;2022-08-06T15:49:17;29.10;57.10
40932;DHT22;36257;46.052;12.540;2022-08-06T15:51:43;28.70;59.20
40932;DHT22;36257;46.052;12.540;2022-08-06T15:54:10;28.40;61.00
40932;DHT22;36257;46.052;12.540;2022-08-06T15:56:36;28.10;63.80
40932;DHT22;36257;46.052;12.540;2022-08-06T15:59:03;27.60;63.50
40932;DHT22;36257;46.052;12.540;2022-08-06T16:01:29;27.50;64.10
40932;DHT22;36257;46.052;12.540;2022-08-06T16:03:55;27.50;63.00
40932;DHT22;36257;46.052;12.540;2022-08-06T16:06:21;27.60;64.10
40932;DHT22;36257;46.052;12.540;2022-08-06T16:08:46;27.50;65.20
40932;DHT22;36257;46.052;12.540;2022-08-06T16:11:12;27.50;66.10
40932;DHT22;36257;46.052;12.540;2022-08-06T16:13:38;27.40;66.00
40932;DHT22;36257;46.052;12.540;2022-08-06T16:16:04;27.20;66.40
40932;DHT22;36257;46.052;12.540;2022-08-06T16:18:31;27.20;64.70
40932;DHT22;36257;46.052;12.540;2022-08-06T16:21:01;27.20;63.90
40932;DHT22;36257;46.052;12.540;2022-08-06T16:23:27;27.30;62.00
40932;DHT22;36257;46.052;12.540;2022-08-06T16:25:53;27.50;60.20
40932;DHT22;36257;46.052;12.540;2022-08-06T16:28:19;27.80;57.30
40932;DHT22;36257;46.052;12.540;2022-08-06T16:30:45;28.20;58.10
40932;DHT22;36257;46.052;12.540;2022-08-06T16:33:10;28.40;59.20
40932;DHT22;36257;46.052;12.540;2022-08-06T16:35:36;28.50;59.90
40932;DHT22;36257;46.052;12.540;2022-08-06T16:38:03;28.40;61.10
40932;DHT22;36257;46.052;12.540;2022-08-06T16:40:29;28.30;64.10